Time;durP1;ratioP1;P1;durP2;ratioP2;P2;SDS_P1;SDS_P2;PMS_P1;PMS_P2;Temp;Humidity;BMP_temperature;BMP_pressure;BME280_temperature;BME280_humidity;BME280_pressure;Samples;Min_cycle;Max_cycle;Signal;HPM_P1;HPM_P2
2023/07/15 00:00:23;;;;;;;4.38;2.60;;;22.90;99.90;;;;;;5074078;28;20194;-50
2023/07/15 00:02:51;;;;;;;3.88;2.67;;;22.90;99.90;;;;;;5073932;28;20162;-49
2023/07/15 00:05:26;;;;;;;6.78;2.38;;;22.90;99.90;;;;;;5074139;28;20261;-50
2023/07/15 00:07:52;;;;;;;2.63;1.98;;;22.90;99.90;;;;;;5055495;28;20571;-50
2023/07/15 00:10:18;;;;;;;3.35;2.30;;;22.90;99.90;;;;;;5073682;28;20288;-50
2023/07/15 00:12:44;;;;;;;5.32;2.53;;;22.90;99.90;;;;;;5073859;28;20178;-52
2023/07/15 00:15:12;;;;;;;3.10;1.92;;;22.90;99.90;;;;;;5073779;28;20537;-49
2023/07/15 00:17:38;;;;;;;2.53;2.00;;;22.80;99.90;;;;;;5073683;28;20201;-50
2023/07/15 00:20:07;;;;;;;3.05;1.95;;;22.80;99.90;;;;;;5073989;28;20211;-51
2023/07/15 00:22:36;;;;;;;4.65;2.20;;;22.80;99.90;;;;;;5055637;28;20174;-50
2023/07/15 00:25:05;;;;;;;2.85;2.28;;;22.80;99.90;;;;;;5073658;28;20162;-49
2023/07/15 00:27:32;;;;;;;3.95;2.35;;;22.80;99.90;;;;;;5073653;28;20217;-49
2023/07/15 00:29:57;;;;;;;6.68;2.05;;;22.80;99.90;;;;;;5073683;28;20180;-49
2023/07/15 00:32:23;;;;;;;6.03;2.45;;;22.80;99.90;;;;;;5073856;28;20166;-50
2023/07/15 00:34:48;;;;;;;4.20;2.28;;;22.80;99.90;;;;;;5073380;28;20216;-49
2023/07/15 00:37:14;;;;;;;2.92;2.22;;;22.80;99.90;;;;;;5073307;28;20166;-49
2023/07/15 00:39:40;;;;;;;5.95;2.10;;;22.80;99.90;;;;;;5073276;28;20170;-50
2023/07/15 00:42:12;;;;;;;3.25;1.90;;;22.80;99.90;;;;;;5073291;28;20180;-51
2023/07/15 00:44:38;;;;;;;4.57;2.22;;;22.90;99.90;;;;;;5055245;28;20208;-51
2023/07/15 00:47:26;;;;;;;3.90;2.00;;;22.80;99.90;;;;;;5073060;28;20242;-50
2023/07/15 00:49:52;;;;;;;7.30;2.60;;;22.70;99.90;;;;;;5073103;28;20618;-49
2023/07/15 00:52:20;;;;;;;2.65;1.98;;;22.80;99.90;;;;;;5073055;28;20260;-50
2023/07/15 00:54:50;;;;;;;3.17;2.33;;;22.70;99.90;;;;;;5073255;28;20162;-52
2023/07/15 00:57:17;;;;;;;3.40;2.10;;;22.70;99.90;;;;;;5072923;28;20572;-51
2023/07/15 00:59:44;;;;;;;2.83;2.13;;;22.70;99.90;;;;;;5072916;28;20181;-51
2023/07/15 01:02:11;;;;;;;5.55;2.15;;;22.60;99.90;;;;;;5072809;28;20162;-50
2023/07/15 01:04:36;;;;;;;2.03;1.90;;;22.60;99.90;;;;;;5072790;28;20215;-50
2023/07/15 01:07:04;;;;;;;2.33;2.08;;;22.60;99.90;;;;;;5054780;28;20228;-52
2023/07/15 01:09:30;;;;;;;4.60;2.08;;;22.60;99.90;;;;;;5055488;28;20535;-49
2023/07/15 01:11:56;;;;;;;4.57;2.15;;;22.60;99.90;;;;;;5072823;28;20214;-52
2023/07/15 01:14:21;;;;;;;2.60;2.05;;;22.50;99.90;;;;;;5072581;28;20169;-50
2023/07/15 01:16:47;;;;;;;4.80;2.03;;;22.50;99.90;;;;;;5072515;28;20166;-50
2023/07/15 01:19:19;;;;;;;4.15;2.20;;;22.50;99.90;;;;;;5072762;28;20162;-51
2023/07/15 01:21:51;;;;;;;2.65;1.83;;;22.50;99.90;;;;;;5072588;28;20165;-50
2023/07/15 01:24:21;;;;;;;5.07;2.20;;;22.50;99.90;;;;;;5072449;28;20944;-50
2023/07/15 01:26:49;;;;;;;2.75;2.05;;;22.50;99.90;;;;;;5072328;28;20734;-50
2023/07/15 01:29:14;;;;;;;2.85;2.30;;;22.50;99.90;;;;;;5072408;28;20185;-50
2023/07/15 01:31:41;;;;;;;2.85;1.77;;;22.50;99.90;;;;;;5054207;28;20162;-50
2023/07/15 01:34:08;;;;;;;4.93;2.10;;;22.50;99.90;;;;;;5072414;28;20201;-49
2023/07/15 01:36:33;;;;;;;2.33;2.00;;;22.50;99.90;;;;;;5072190;28;20166;-49
2023/07/15 01:38:59;;;;;;;3.17;2.17;;;22.50;99.90;;;;;;5072092;28;20188;-49
2023/07/15 01:41:25;;;;;;;3.22;2.03;;;22.50;99.90;;;;;;5072729;28;20584;-50
2023/07/15 01:43:50;;;;;;;4.90;2.10;;;22.50;99.90;;;;;;5071982;28;20534;-49
2023/07/15 01:46:16;;;;;;;3.13;1.73;;;22.50;99.90;;;;;;5071982;28;20169;-50
2023/07/15 01:48:42;;;;;;;3.47;2.10;;;22.50;99.90;;;;;;5072168;28;20292;-51
2023/07/15 01:51:07;;;;;;;4.63;2.15;;;22.50;99.90;;;;;;5072134;28;20206;-49
2023/07/15 01:53:33;;;;;;;3.55;1.98;;;22.50;99.90;;;;;;5053915;28;20649;-49
2023/07/15 01:55:58;;;;;;;3.88;2.10;;;22.50;99.90;;;;;;5071832;28;20640;-48
2023/07/15 01:58:24;;;;;;;5.38;2.08;;;22.40;99.90;;;;;;5072193;28;20162;-49
2023/07/15 02:00:49;;;;;;;4.10;1.95;;;22.50;99.90;;;;;;5053878;28;20166;-50
2023/07/15 02:03:15;;;;;;;2.83;1.85;;;22.50;99.90;;;;;;5071710;28;20630;-50
2023/07/15 02:05:41;;;;;;;4.03;2.35;;;22.50;99.90;;;;;;5072064;28;20177;-50
2023/07/15 02:08:06;;;;;;;7.38;2.10;;;22.50;99.90;;;;;;5071024;28;20194;-49
2023/07/15 02:10:32;;;;;;;2.88;2.15;;;22.50;99.90;;;;;;5071450;28;20610;-49
2023/07/15 02:12:57;;;;;;;4.75;2.38;;;22.50;99.90;;;;;;5071621;28;20231;-49
2023/07/15 02:15:23;;;;;;;11.43;2.00;;;22.50;99.90;;;;;;5072086;28;20644;-49
2023/07/15 02:17:49;;;;;;;3.28;2.63;;;22.50;99.90;;;;;;5071670;28;20162;-50
2023/07/15 02:20:15;;;;;;;9.93;2.10;;;22.50;99.90;;;;;;5071517;28;20587;-49
2023/07/15 02:22:41;;;;;;;3.35;2.33;;;22.50;99.90;;;;;;5071668;28;20174;-49
2023/07/15 02:25:07;;;;;;;3.67;2.25;;;22.50;99.90;;;;;;5071764;28;20169;-49
2023/07/15 02:27:32;;;;;;;5.70;2.10;;;22.50;99.90;;;;;;5071520;28;20208;-49
2023/07/15 02:29:58;;;;;;;4.68;2.10;;;22.40;99.90;;;;;;5071455;28;20158;-49
2023/07/15 02:32:40;;;;;;;3.10;2.08;;;22.40;99.90;;;;;;5071977;28;20181;-50
2023/07/15 02:35:11;;;;;;;2.17;1.98;;;22.40;99.90;;;;;;5071700;28;20170;-50
2023/07/15 02:37:39;;;;;;;2.47;2.22;;;22.40;99.90;;;;;;5071488;28;20184;-49
2023/07/15 02:40:05;;;;;;;2.75;2.05;;;22.50;99.90;;;;;;5071289;28;20624;-49
2023/07/15 02:42:34;;;;;;;4.10;2.30;;;22.30;99.90;;;;;;5071639;28;20176;-50
2023/07/15 02:45:04;;;;;;;5.57;2.10;;;22.30;99.90;;;;;;5071258;28;20158;-49
2023/07/15 02:47:31;;;;;;;6.47;2.33;;;22.30;99.90;;;;;;5071169;28;20278;-49
2023/07/15 02:50:05;;;;;;;2.60;2.13;;;22.30;99.90;;;;;;5053591;28;20166;-49
2023/07/15 02:52:34;;;;;;;5.57;2.20;;;22.30;99.90;;;;;;5071316;28;20204;-49
2023/07/15 02:55:01;;;;;;;4.95;1.92;;;22.20;99.90;;;;;;5071247;28;20528;-49
2023/07/15 02:57:27;;;;;;;2.80;2.20;;;22.20;99.90;;;;;;5071524;28;20261;-49
2023/07/15 02:59:54;;;;;;;5.15;2.38;;;22.10;99.90;;;;;;5071767;28;20560;-49
2023/07/15 03:02:20;;;;;;;7.78;2.22;;;22.20;99.90;;;;;;5071184;28;20215;-49
2023/07/15 03:04:46;;;;;;;3.55;1.80;;;22.10;99.90;;;;;;5071143;28;20162;-51
2023/07/15 03:07:13;;;;;;;3.05;2.10;;;22.10;99.90;;;;;;5071038;28;20262;-49
2023/07/15 03:09:39;;;;;;;4.03;1.83;;;22.10;99.90;;;;;;5071075;28;20202;-50
2023/07/15 03:12:05;;;;;;;7.22;2.60;;;22.10;99.90;;;;;;5070998;28;20296;-49
2023/07/15 03:14:30;;;;;;;3.53;2.00;;;22.00;99.90;;;;;;5071015;28;20253;-49
2023/07/15 03:16:56;;;;;;;4.07;2.17;;;22.00;99.90;;;;;;5069922;28;20276;-52
2023/07/15 03:19:21;;;;;;;3.30;1.88;;;22.00;99.90;;;;;;5092668;28;20153;-52
2023/07/15 03:21:47;;;;;;;3.08;1.92;;;22.00;99.90;;;;;;5094980;28;20657;-51
2023/07/15 03:24:13;;;;;;;3.47;2.17;;;21.90;99.90;;;;;;5095339;28;20248;-50
2023/07/15 03:26:39;;;;;;;5.32;2.10;;;21.90;99.90;;;;;;5094942;28;20248;-51
2023/07/15 03:29:08;;;;;;;3.75;2.15;;;21.80;99.90;;;;;;5095117;28;20174;-53
2023/07/15 03:31:34;;;;;;;5.30;2.15;;;21.90;99.90;;;;;;5095091;28;20188;-52
2023/07/15 03:34:00;;;;;;;3.65;2.00;;;21.90;99.90;;;;;;5094755;28;20161;-52
2023/07/15 03:36:25;;;;;;;3.55;2.38;;;21.80;99.90;;;;;;5076971;28;20161;-52
2023/07/15 03:38:51;;;;;;;2.65;2.03;;;21.80;99.90;;;;;;5094655;28;20169;-52
2023/07/15 03:41:16;;;;;;;4.25;2.10;;;21.80;99.90;;;;;;5076531;28;20198;-52
2023/07/15 03:43:42;;;;;;;4.22;2.13;;;21.80;99.90;;;;;;5094645;28;20161;-51
2023/07/15 03:46:07;;;;;;;2.67;1.90;;;21.70;99.90;;;;;;5094690;28;20165;-51
2023/07/15 03:48:33;;;;;;;5.18;2.10;;;21.80;99.90;;;;;;5094734;28;20209;-52
2023/07/15 03:50:58;;;;;;;6.95;2.30;;;21.80;99.90;;;;;;5094805;28;20173;-50
2023/07/15 03:53:25;;;;;;;4.82;2.15;;;21.70;99.90;;;;;;5095171;28;20617;-50
2023/07/15 03:55:50;;;;;;;4.25;2.28;;;21.70;99.90;;;;;;5094350;28;20653;-51
2023/07/15 03:58:16;;;;;;;3.88;2.05;;;21.70;99.90;;;;;;5094327;28;20173;-50
2023/07/15 04:00:41;;;;;;;3.95;2.20;;;21.80;99.90;;;;;;5094289;28;20176;-51
2023/07/15 04:03:07;;;;;;;2.90;2.22;;;21.80;99.90;;;;;;5094365;28;20259;-52
2023/07/15 04:05:33;;;;;;;2.70;2.28;;;21.80;99.90;;;;;;5094296;28;20197;-53
2023/07/15 04:07:58;;;;;;;1.88;1.65;;;21.80;99.90;;;;;;5075888;28;20714;-51
2023/07/15 04:10:24;;;;;;;3.28;2.17;;;21.80;99.90;;;;;;5094348;28;20209;-50
2023/07/15 04:12:49;;;;;;;3.08;2.08;;;21.80;99.90;;;;;;5094086;28;20640;-52
2023/07/15 04:15:15;;;;;;;3.05;2.13;;;21.80;99.90;;;;;;5094011;28;20647;-50
2023/07/15 04:17:41;;;;;;;3.58;2.00;;;21.80;99.90;;;;;;5093992;28;20252;-52
2023/07/15 04:20:12;;;;;;;1.90;1.70;;;21.90;99.90;;;;;;5093902;28;20173;-50
2023/07/15 04:22:37;;;;;;;3.13;2.13;;;21.90;99.90;;;;;;5075777;28;20671;-52
2023/07/15 04:25:03;;;;;;;5.20;2.60;;;21.90;99.90;;;;;;5075694;28;20165;-52
2023/07/15 04:27:29;;;;;;;4.57;2.42;;;22.00;99.90;;;;;;5093963;28;20258;-50
2023/07/15 04:29:55;;;;;;;2.00;1.80;;;22.00;99.90;;;;;;5094276;28;20173;-50
2023/07/15 04:32:20;;;;;;;5.80;2.25;;;22.10;99.90;;;;;;5093217;28;20226;-51
2023/07/15 04:34:49;;;;;;;3.65;2.00;;;22.00;99.90;;;;;;5093568;28;20168;-52
2023/07/15 04:37:18;;;;;;;9.05;2.08;;;22.10;99.90;;;;;;5093782;28;20181;-52
2023/07/15 04:39:44;;;;;;;3.13;1.90;;;22.10;99.90;;;;;;5093582;28;20180;-52
2023/07/15 04:42:10;;;;;;;3.17;2.00;;;22.30;99.90;;;;;;5093530;28;20170;-52
2023/07/15 04:44:36;;;;;;;3.70;2.30;;;22.40;99.90;;;;;;5093450;28;20173;-50
2023/07/15 04:47:01;;;;;;;4.25;1.98;;;22.50;99.90;;;;;;5075438;28;20220;-51
2023/07/15 04:49:27;;;;;;;4.63;2.50;;;22.50;99.90;;;;;;5093327;28;20177;-49
2023/07/15 04:51:53;;;;;;;6.68;2.03;;;22.60;99.90;;;;;;5093718;28;20688;-50
2023/07/15 04:54:18;;;;;;;2.95;2.00;;;22.60;99.90;;;;;;5093302;28;20181;-51
2023/07/15 04:56:44;;;;;;;5.00;2.33;;;22.80;99.90;;;;;;5093227;28;20179;-52
2023/07/15 04:59:11;;;;;;;3.45;2.13;;;22.70;99.90;;;;;;5093187;28;20204;-50
2023/07/15 05:01:36;;;;;;;4.82;1.90;;;22.90;99.90;;;;;;5093401;28;20559;-49
2023/07/15 05:04:03;;;;;;;9.80;2.20;;;22.90;99.90;;;;;;5092999;28;20173;-52
2023/07/15 05:06:29;;;;;;;4.68;2.15;;;23.00;99.90;;;;;;5093035;28;20231;-50
2023/07/15 05:08:55;;;;;;;6.80;2.78;;;23.00;99.90;;;;;;5093254;28;20238;-52
2023/07/15 05:11:21;;;;;;;3.13;1.88;;;23.00;99.90;;;;;;5092829;28;20228;-52
2023/07/15 05:13:46;;;;;;;5.75;2.38;;;23.20;99.90;;;;;;5092895;28;20169;-49
2023/07/15 05:16:15;;;;;;;2.60;2.22;;;23.20;99.90;;;;;;5093148;28;20617;-49
2023/07/15 05:18:40;;;;;;;3.50;2.42;;;23.20;99.90;;;;;;5074679;28;20165;-49
2023/07/15 05:21:06;;;;;;;3.47;2.20;;;23.30;99.90;;;;;;5092737;28;20633;-51
2023/07/15 05:23:32;;;;;;;4.90;1.90;;;23.30;99.90;;;;;;5092698;28;20176;-50
2023/07/15 05:25:59;;;;;;;4.03;2.42;;;23.50;99.90;;;;;;5092324;28;20165;-50
2023/07/15 05:28:30;;;;;;;2.40;2.00;;;23.60;99.90;;;;;;5092982;28;20200;-51
2023/07/15 05:30:59;;;;;;;3.08;1.83;;;23.70;99.90;;;;;;5093227;28;20176;-49
2023/07/15 05:33:25;;;;;;;7.65;2.30;;;23.70;99.90;;;;;;5075385;28;20165;-50
2023/07/15 05:35:52;;;;;;;5.00;2.20;;;23.90;99.90;;;;;;5092701;28;20157;-53
2023/07/15 05:38:21;;;;;;;3.80;2.17;;;23.90;99.90;;;;;;5092563;28;20188;-50
2023/07/15 05:40:47;;;;;;;2.65;1.80;;;24.10;99.90;;;;;;5074074;28;20165;-49
2023/07/15 05:43:12;;;;;;;2.95;2.20;;;24.20;99.90;;;;;;5072804;28;20183;-49
2023/07/15 05:45:38;;;;;;;4.38;2.05;;;24.20;99.90;;;;;;5092290;28;20173;-50
2023/07/15 05:48:04;;;;;;;8.20;2.28;;;24.30;99.90;;;;;;5091960;28;20680;-49
2023/07/15 05:50:36;;;;;;;4.70;2.13;;;24.30;99.90;;;;;;5092076;28;20545;-49
2023/07/15 05:53:05;;;;;;;5.82;2.35;;;24.40;99.90;;;;;;5092221;28;20165;-49
2023/07/15 05:55:34;;;;;;;5.75;1.95;;;24.40;99.90;;;;;;5092158;28;20625;-49
2023/07/15 05:58:01;;;;;;;3.58;2.05;;;24.50;99.90;;;;;;5092113;28;20169;-49
2023/07/15 06:00:29;;;;;;;4.35;2.60;;;24.50;99.90;;;;;;5091863;28;20188;-49
2023/07/15 06:02:55;;;;;;;6.18;2.50;;;24.60;99.90;;;;;;5092260;28;20686;-49
2023/07/15 06:05:20;;;;;;;4.28;2.08;;;23.30;99.90;;;;;;5092353;28;20173;-50
2023/07/15 06:07:48;;;;;;;4.07;2.03;;;24.70;99.90;;;;;;5091769;28;20760;-48
2023/07/15 06:10:13;;;;;;;4.65;1.92;;;24.70;99.90;;;;;;5091747;28;20197;-50
2023/07/15 06:12:39;;;;;;;6.90;2.30;;;24.70;99.90;;;;;;5091884;28;20698;-49
2023/07/15 06:15:05;;;;;;;2.72;1.90;;;24.80;99.90;;;;;;5091688;28;20169;-49
2023/07/15 06:17:31;;;;;;;3.92;1.98;;;24.80;99.90;;;;;;5091569;28;20570;-49
2023/07/15 06:19:56;;;;;;;7.43;2.30;;;24.80;99.90;;;;;;5091605;28;20210;-49
2023/07/15 06:22:22;;;;;;;5.10;2.75;;;25.00;99.90;;;;;;5091568;28;20169;-54
2023/07/15 06:24:48;;;;;;;4.60;2.35;;;25.10;99.90;;;;;;5076512;28;20174;-49
2023/07/15 06:27:13;;;;;;;3.03;2.38;;;25.10;99.90;;;;;;5071361;28;20745;-49
2023/07/15 06:29:39;;;;;;;2.78;2.10;;;25.10;99.90;;;;;;5071356;28;20188;-49
2023/07/15 06:32:05;;;;;;;7.55;2.38;;;25.20;99.90;;;;;;5071535;28;20158;-50
2023/07/15 06:34:31;;;;;;;4.18;2.17;;;25.30;99.90;;;;;;5071364;28;20540;-49
2023/07/15 06:36:57;;;;;;;3.50;2.10;;;25.30;99.90;;;;;;5070976;28;20166;-47
2023/07/15 06:39:22;;;;;;;3.05;1.95;;;25.30;99.90;;;;;;5071432;28;20169;-47
2023/07/15 06:41:50;;;;;;;6.05;3.15;;;25.40;99.90;;;;;;5071572;28;20165;-48
2023/07/15 06:44:16;;;;;;;4.70;2.70;;;25.40;99.90;;;;;;5070960;28;20215;-48
2023/07/15 06:46:41;;;;;;;6.30;2.90;;;25.40;99.90;;;;;;5071004;28;20170;-47
2023/07/15 06:49:07;;;;;;;6.47;3.20;;;25.30;99.90;;;;;;5071211;28;20181;-50
2023/07/15 06:51:32;;;;;;;5.55;2.90;;;25.30;99.90;;;;;;5070763;28;20244;-50
2023/07/15 06:53:58;;;;;;;2.78;2.15;;;25.20;99.90;;;;;;5071722;28;20180;-48
2023/07/15 06:56:23;;;;;;;3.90;2.47;;;25.30;99.90;;;;;;5075739;28;20637;-50
2023/07/15 06:58:49;;;;;;;6.20;3.03;;;25.30;99.90;;;;;;5075192;28;20193;-50
2023/07/15 07:01:15;;;;;;;4.63;2.80;;;25.20;99.90;;;;;;5075536;28;20170;-49
2023/07/15 07:03:40;;;;;;;6.57;2.83;;;25.20;99.90;;;;;;5074995;28;20617;-50
2023/07/15 07:06:06;;;;;;;5.47;2.67;;;25.20;99.90;;;;;;5075223;28;20170;-49
2023/07/15 07:08:31;;;;;;;7.32;2.30;;;25.30;99.90;;;;;;5075102;28;20205;-50
2023/07/15 07:10:57;;;;;;;7.45;2.67;;;25.00;99.90;;;;;;5074850;28;20213;-48
2023/07/15 07:13:22;;;;;;;2.85;2.00;;;25.20;99.90;;;;;;5075350;28;20193;-50
2023/07/15 07:15:48;;;;;;;4.55;2.33;;;25.00;99.90;;;;;;5075097;28;20162;-50
2023/07/15 07:18:14;;;;;;;7.63;3.00;;;24.90;99.90;;;;;;5074773;28;20174;-50
2023/07/15 07:20:40;;;;;;;3.75;2.10;;;25.00;99.90;;;;;;5074491;28;20227;-51
2023/07/15 07:23:05;;;;;;;3.45;1.90;;;25.10;99.90;;;;;;5074533;28;20309;-53
2023/07/15 07:25:31;;;;;;;8.57;2.65;;;25.00;99.90;;;;;;5074571;28;20252;-51
2023/07/15 07:27:57;;;;;;;7.20;2.58;;;25.00;99.90;;;;;;5073950;28;20197;-50
2023/07/15 07:30:23;;;;;;;4.28;2.58;;;25.10;99.90;;;;;;5074654;28;20173;-47
2023/07/15 07:32:48;;;;;;;4.30;2.40;;;25.00;99.90;;;;;;5074767;28;20181;-49
2023/07/15 07:35:14;;;;;;;6.47;2.45;;;25.10;99.90;;;;;;5074532;28;20169;-48
2023/07/15 07:37:40;;;;;;;2.55;2.17;;;25.10;99.90;;;;;;5074435;28;20194;-47
2023/07/15 07:40:09;;;;;;;7.13;2.25;;;25.20;99.90;;;;;;5074080;28;20170;-48
2023/07/15 07:42:35;;;;;;;3.42;2.25;;;25.20;99.90;;;;;;5074534;28;20169;-48
2023/07/15 07:45:01;;;;;;;5.82;2.15;;;25.30;99.90;;;;;;5074267;28;20625;-47
2023/07/15 07:47:26;;;;;;;5.72;2.53;;;25.30;99.90;;;;;;5074199;28;20680;-48
2023/07/15 07:49:52;;;;;;;2.92;1.90;;;25.30;99.90;;;;;;5074635;28;20582;-48
2023/07/15 07:52:17;;;;;;;3.28;2.10;;;25.30;99.90;;;;;;5074119;28;20176;-48
2023/07/15 07:54:43;;;;;;;5.15;2.45;;;25.40;99.90;;;;;;5073627;28;20166;-48
2023/07/15 07:57:10;;;;;;;3.83;2.28;;;25.40;99.90;;;;;;5056089;28;20166;-48
2023/07/15 07:59:35;;;;;;;4.07;2.20;;;25.50;99.90;;;;;;5074326;28;20257;-48
2023/07/15 08:02:01;;;;;;;3.92;2.13;;;25.60;99.90;;;;;;5074018;28;20598;-48
2023/07/15 08:04:26;;;;;;;4.05;1.90;;;25.60;99.90;;;;;;5073662;28;20676;-48
2023/07/15 08:06:52;;;;;;;4.35;1.80;;;25.70;99.90;;;;;;5073308;28;20257;-49
2023/07/15 08:09:17;;;;;;;3.88;2.10;;;25.60;99.90;;;;;;5073587;28;20176;-48
2023/07/15 08:11:44;;;;;;;2.10;1.90;;;25.60;99.90;;;;;;5073734;28;20303;-48
2023/07/15 08:14:10;;;;;;;3.88;2.10;;;25.60;99.90;;;;;;5073820;28;20644;-48
2023/07/15 08:16:39;;;;;;;2.72;2.22;;;25.60;99.90;;;;;;5073939;28;20176;-48
2023/07/15 08:19:06;;;;;;;5.65;2.58;;;25.60;99.90;;;;;;5055714;28;20227;-48
2023/07/15 08:21:32;;;;;;;5.82;2.05;;;25.60;99.90;;;;;;5073873;28;20204;-49
2023/07/15 08:23:58;;;;;;;4.68;1.88;;;25.40;99.90;;;;;;5073810;28;20500;-48
2023/07/15 08:26:24;;;;;;;5.97;2.10;;;25.50;99.90;;;;;;5074027;28;20172;-48
2023/07/15 08:28:50;;;;;;;3.50;2.00;;;25.40;99.90;;;;;;5074140;28;20209;-48
2023/07/15 08:31:16;;;;;;;3.15;1.98;;;25.30;99.90;;;;;;5073744;28;20548;-48
2023/07/15 08:33:42;;;;;;;5.82;2.60;;;25.00;99.90;;;;;;5073879;28;20693;-49
2023/07/15 08:36:08;;;;;;;4.18;1.95;;;25.00;99.90;;;;;;5055414;28;20170;-49
2023/07/15 08:38:33;;;;;;;5.30;2.00;;;24.80;99.90;;;;;;5073179;28;20208;-49
2023/07/15 08:41:00;;;;;;;4.78;2.15;;;24.70;99.90;;;;;;5072898;28;20174;-48
2023/07/15 08:43:28;;;;;;;5.10;2.17;;;24.60;99.90;;;;;;5073048;28;20162;-50
2023/07/15 08:45:56;;;;;;;6.18;2.30;;;24.30;99.90;;;;;;5073359;28;20280;-49
2023/07/15 08:48:22;;;;;;;6.18;2.00;;;24.10;99.90;;;;;;5073166;28;20209;-49
2023/07/15 08:50:49;;;;;;;3.85;2.00;;;23.80;99.90;;;;;;5072657;28;20173;-52
2023/07/15 08:53:18;;;;;;;4.72;2.08;;;23.60;99.90;;;;;;5073100;28;20178;-49
2023/07/15 08:55:43;;;;;;;7.55;2.45;;;23.50;99.90;;;;;;5072582;28;20161;-48
2023/07/15 08:58:09;;;;;;;7.38;3.00;;;23.00;99.90;;;;;;5072451;28;20170;-50
2023/07/15 09:00:35;;;;;;;5.53;2.97;;;22.70;99.90;;;;;;5072857;28;20162;-49
2023/07/15 09:03:01;;;;;;;5.40;2.88;;;22.60;99.90;;;;;;5054482;28;20198;-49
2023/07/15 09:05:26;;;;;;;7.28;2.88;;;22.50;99.90;;;;;;5072593;28;20173;-48
2023/07/15 09:07:57;;;;;;;6.00;3.33;;;22.50;99.90;;;;;;5072747;28;20198;-50
2023/07/15 09:10:23;;;;;;;4.57;3.20;;;22.30;99.90;;;;;;5073048;28;20579;-48
2023/07/15 09:12:55;;;;;;;6.05;3.55;;;22.10;99.90;;;;;;5072440;28;20162;-48
2023/07/15 09:15:21;;;;;;;4.70;2.85;;;22.10;99.90;;;;;;5072662;28;20162;-49
2023/07/15 09:17:55;;;;;;;5.25;2.45;;;22.00;99.90;;;;;;5071620;28;20626;-48
2023/07/15 09:20:22;;;;;;;5.88;3.05;;;22.10;99.90;;;;;;5072805;28;20571;-51
2023/07/15 09:22:58;;;;;;;3.38;2.85;;;22.00;99.90;;;;;;5072338;28;20641;-50
2023/07/15 09:25:24;;;;;;;5.32;2.97;;;21.90;99.90;;;;;;5072574;28;20701;-54
2023/07/15 09:27:50;;;;;;;4.88;2.95;;;22.00;99.90;;;;;;5072746;28;20685;-51
2023/07/15 09:30:17;;;;;;;6.60;2.90;;;21.90;99.90;;;;;;5054637;28;20212;-53
2023/07/15 09:32:42;;;;;;;4.10;2.42;;;21.70;99.90;;;;;;5071674;28;20166;-53
2023/07/15 09:35:08;;;;;;;4.95;2.55;;;21.70;99.90;;;;;;5072110;28;20208;-51
2023/07/15 09:37:34;;;;;;;6.70;2.55;;;21.70;99.90;;;;;;5071978;28;20197;-50
2023/07/15 09:40:04;;;;;;;4.45;2.70;;;21.80;99.90;;;;;;5071941;28;20162;-51
2023/07/15 09:42:29;;;;;;;3.95;2.47;;;21.70;99.90;;;;;;5071917;28;20162;-51
2023/07/15 09:44:55;;;;;;;5.30;2.38;;;21.70;99.90;;;;;;5071725;28;20185;-50
2023/07/15 09:47:21;;;;;;;7.25;2.85;;;21.80;99.90;;;;;;5071891;28;20197;-50
2023/07/15 09:49:47;;;;;;;7.97;2.75;;;21.90;99.90;;;;;;5071358;28;20166;-50
2023/07/15 09:52:14;;;;;;;6.57;2.50;;;22.00;99.90;;;;;;5071666;28;20172;-52
2023/07/15 09:54:42;;;;;;;4.35;2.22;;;22.10;99.90;;;;;;5071812;28;20594;-49
2023/07/15 09:57:15;;;;;;;7.28;2.97;;;22.20;99.90;;;;;;5071374;28;20621;-51
2023/07/15 09:59:46;;;;;;;3.47;2.42;;;22.30;99.90;;;;;;5071606;28;20170;-49
2023/07/15 10:02:41;;;;;;;2.83;2.50;;;22.40;99.90;;;;;;5071292;28;20164;-54
2023/07/15 10:05:09;;;;;;;3.33;2.35;;;22.40;99.90;;;;;;5071526;28;20253;-53
2023/07/15 10:07:36;;;;;;;7.22;3.05;;;22.50;99.90;;;;;;5071681;28;20213;-53
2023/07/15 10:10:02;;;;;;;7.43;3.20;;;22.30;99.90;;;;;;5070985;28;20170;-53
2023/07/15 10:12:28;;;;;;;8.20;3.40;;;22.40;99.90;;;;;;5071668;28;20256;-53
2023/07/15 10:14:55;;;;;;;10.15;3.65;;;22.30;99.90;;;;;;5071379;28;20276;-53
2023/07/15 10:17:20;;;;;;;8.98;3.40;;;22.30;99.90;;;;;;5071461;28;20638;-53
2023/07/15 10:19:48;;;;;;;8.60;3.17;;;22.40;99.90;;;;;;5071313;28;20200;-52
2023/07/15 10:22:15;;;;;;;5.63;2.25;;;22.50;99.90;;;;;;5071290;28;20162;-50
2023/07/15 10:24:55;;;;;;;4.88;2.60;;;22.60;99.90;;;;;;5071317;28;20197;-50
2023/07/15 10:27:21;;;;;;;2.58;2.38;;;22.80;99.90;;;;;;5071721;28;20252;-50
2023/07/15 10:30:14;;;;;;;2.90;2.28;;;22.90;99.90;;;;;;5070012;28;20553;-49
2023/07/15 10:33:05;;;;;;;3.50;2.35;;;23.10;99.90;;;;;;5071186;28;20201;-51
2023/07/15 10:35:45;;;;;;;3.10;2.40;;;23.10;99.90;;;;;;5071288;28;20193;-52
2023/07/15 10:38:28;;;;;;;4.60;2.33;;;23.20;99.90;;;;;;5071046;28;20190;-50
2023/07/15 10:41:02;;;;;;;3.80;2.50;;;23.20;99.90;;;;;;5071091;28;20162;-50
2023/07/15 10:43:34;;;;;;;2.78;2.05;;;23.30;99.90;;;;;;5071375;28;20174;-51
2023/07/15 10:46:02;;;;;;;2.42;2.22;;;23.30;99.90;;;;;;5070945;28;20174;-49
2023/07/15 10:48:28;;;;;;;3.58;2.35;;;23.20;99.90;;;;;;5071024;28;20220;-50
2023/07/15 10:50:55;;;;;;;4.82;2.83;;;23.10;99.90;;;;;;5071386;28;20190;-50
2023/07/15 10:53:22;;;;;;;5.22;2.92;;;23.10;99.90;;;;;;5071609;28;20173;-50
2023/07/15 10:56:13;;;;;;;5.65;3.35;;;23.10;99.90;;;;;;5070882;28;20634;-51
2023/07/15 10:58:40;;;;;;;16.38;3.92;;;23.30;99.90;;;;;;5066539;28;20650;-49
2023/07/15 11:01:07;;;;;;;7.90;3.53;;;23.40;99.90;;;;;;5070781;28;20219;-54
2023/07/15 11:03:41;;;;;;;4.82;2.95;;;23.50;99.90;;;;;;5070744;28;20194;-50
2023/07/15 11:06:07;;;;;;;6.80;3.50;;;23.60;99.90;;;;;;5070897;28;20177;-50
2023/07/15 11:08:33;;;;;;;6.63;3.28;;;23.80;99.90;;;;;;5070769;28;20209;-49
2023/07/15 11:11:00;;;;;;;4.53;3.17;;;23.90;99.90;;;;;;5070740;28;20221;-54
2023/07/15 11:13:26;;;;;;;8.10;3.40;;;24.10;99.90;;;;;;5070500;28;20191;-52
2023/07/15 11:15:52;;;;;;;6.25;4.13;;;24.10;99.90;;;;;;5071266;28;20165;-53
2023/07/15 11:18:19;;;;;;;7.70;4.25;;;24.50;99.90;;;;;;5070740;28;20524;-51
2023/07/15 11:20:46;;;;;;;5.20;3.05;;;24.50;99.90;;;;;;5070737;28;20166;-52
2023/07/15 11:23:12;;;;;;;5.07;3.20;;;24.30;99.90;;;;;;5070713;28;20168;-50
2023/07/15 11:25:38;;;;;;;5.95;3.30;;;24.20;99.90;;;;;;5070630;28;20173;-51
2023/07/15 11:28:04;;;;;;;6.60;3.05;;;24.10;99.90;;;;;;5070267;28;20216;-49
2023/07/15 11:30:37;;;;;;;8.77;3.75;;;24.30;99.90;;;;;;5070772;28;20165;-53
2023/07/15 11:33:04;;;;;;;6.82;3.30;;;24.40;99.90;;;;;;5070697;28;20261;-52
2023/07/15 11:35:31;;;;;;;3.85;2.70;;;24.50;99.90;;;;;;5070616;28;20216;-53
2023/07/15 11:37:56;;;;;;;3.58;2.67;;;24.70;99.90;;;;;;5070592;28;20171;-53
2023/07/15 11:40:22;;;;;;;3.90;2.60;;;24.90;99.90;;;;;;5053938;28;20169;-49
2023/07/15 11:42:51;;;;;;;3.05;2.72;;;25.20;99.90;;;;;;5073949;28;20200;-49
2023/07/15 11:45:16;;;;;;;6.57;3.10;;;25.00;99.90;;;;;;5074335;28;20563;-52
2023/07/15 11:47:42;;;;;;;5.15;2.67;;;25.20;99.90;;;;;;5074221;28;20193;-50
2023/07/15 11:50:13;;;;;;;4.20;2.72;;;25.00;99.90;;;;;;5074216;28;20611;-52
2023/07/15 11:52:41;;;;;;;4.03;2.60;;;24.90;99.90;;;;;;5074457;28;20208;-51
2023/07/15 11:55:07;;;;;;;3.33;2.63;;;25.00;99.90;;;;;;5074100;28;20256;-51
2023/07/15 11:57:40;;;;;;;4.57;2.80;;;24.80;99.90;;;;;;5074422;28;20173;-54
2023/07/15 12:00:08;;;;;;;4.00;2.47;;;24.80;99.90;;;;;;5074067;28;20174;-49
2023/07/15 12:02:35;;;;;;;3.55;2.50;;;24.70;99.90;;;;;;5074341;28;20170;-51
2023/07/15 12:05:01;;;;;;;3.47;2.75;;;24.40;99.90;;;;;;5074023;28;20211;-50
2023/07/15 12:07:27;;;;;;;5.15;2.53;;;24.50;99.90;;;;;;5073717;28;20201;-49
2023/07/15 12:10:06;;;;;;;4.30;2.80;;;24.30;99.90;;;;;;5074161;28;20166;-50
2023/07/15 12:12:31;;;;;;;4.80;2.80;;;24.30;99.90;;;;;;5073652;28;20202;-51
2023/07/15 12:14:57;;;;;;;5.85;3.10;;;24.20;99.90;;;;;;5073688;28;20244;-53
2023/07/15 12:17:22;;;;;;;3.85;2.78;;;24.10;99.90;;;;;;5091732;28;20177;-50
2023/07/15 12:19:48;;;;;;;4.65;3.00;;;24.20;99.90;;;;;;5093865;28;20617;-49
2023/07/15 12:22:13;;;;;;;2.90;2.60;;;24.30;99.90;;;;;;5093333;28;20588;-50
2023/07/15 12:24:39;;;;;;;10.63;2.80;;;24.40;99.90;;;;;;5093770;28;20708;-50
2023/07/15 12:27:05;;;;;;;5.78;2.90;;;24.50;99.90;;;;;;5093543;28;20172;-50
2023/07/15 12:29:30;;;;;;;3.15;2.53;;;24.50;99.90;;;;;;5093705;28;20169;-51
2023/07/15 12:31:56;;;;;;;4.15;2.75;;;24.50;99.90;;;;;;5093635;28;20183;-52
2023/07/15 12:34:21;;;;;;;4.95;2.63;;;24.40;99.90;;;;;;5094240;28;20173;-50
2023/07/15 12:36:47;;;;;;;4.97;2.90;;;24.30;99.90;;;;;;5093450;28;20651;-52
2023/07/15 12:39:13;;;;;;;4.53;3.20;;;24.30;99.90;;;;;;5093528;28;20169;-51
2023/07/15 12:41:39;;;;;;;4.25;2.38;;;24.30;99.90;;;;;;5093658;28;20177;-50
2023/07/15 12:44:04;;;;;;;6.05;3.30;;;24.20;99.90;;;;;;5093275;28;20242;-50